Time;durP1;ratioP1;P1;durP2;ratioP2;P2;SDS_P1;SDS_P2;PMS_P1;PMS_P2;Temp;Humidity;BMP_temperature;BMP_pressure;BME280_temperature;BME280_humidity;BME280_pressure;Samples;Min_cycle;Max_cycle;Signal;HPM_P1;HPM_P2
2022/10/13 00:00:46;;;;;;;5.88;2.53;;;23.10;69.80;;;;;;5069159;28;20023;-67
2022/10/13 00:03:13;;;;;;;5.38;1.38;;;22.90;69.00;;;;;;5055961;28;20072;-67
2022/10/13 00:05:43;;;;;;;6.85;1.50;;;22.80;70.00;;;;;;5049536;28;20076;-67
2022/10/13 00:08:12;;;;;;;3.55;1.33;;;22.80;71.10;;;;;;5069107;28;20016;-67
2022/10/13 00:10:40;;;;;;;5.43;1.45;;;22.90;72.20;;;;;;5061683;28;20079;-67
2022/10/13 00:13:08;;;;;;;6.32;1.80;;;23.00;72.40;;;;;;5050608;28;20111;-66
2022/10/13 00:15:40;;;;;;;6.70;1.95;;;23.10;72.90;;;;;;5091005;28;20359;-66
2022/10/13 00:18:08;;;;;;;5.50;1.70;;;23.20;69.20;;;;;;5047615;28;20071;-67
2022/10/13 00:20:40;;;;;;;7.18;1.63;;;23.10;70.70;;;;;;5043971;28;20037;-66
2022/10/13 00:23:07;;;;;;;3.95;2.15;;;23.00;70.80;;;;;;5049504;28;20025;-67
2022/10/13 00:25:35;;;;;;;9.25;1.77;;;22.80;70.30;;;;;;5050656;28;20554;-66
2022/10/13 00:28:02;;;;;;;5.88;1.85;;;22.90;70.70;;;;;;5052075;28;20033;-67
2022/10/13 00:30:33;;;;;;;8.00;1.98;;;22.90;70.20;;;;;;5065623;28;20471;-66
2022/10/13 00:33:00;;;;;;;7.13;2.08;;;22.80;71.80;;;;;;5049525;28;20024;-67
2022/10/13 00:35:27;;;;;;;8.23;2.33;;;23.00;72.30;;;;;;5046798;28;20036;-67
2022/10/13 00:37:55;;;;;;;6.97;1.70;;;23.20;71.10;;;;;;5042861;28;20029;-67
2022/10/13 00:40:22;;;;;;;5.15;2.70;;;23.30;69.90;;;;;;5050960;28;20046;-67
2022/10/13 00:42:49;;;;;;;5.10;2.22;;;23.20;69.00;;;;;;5052679;28;20028;-66
2022/10/13 00:45:28;;;;;;;7.82;2.30;;;23.40;71.20;;;;;;5068591;28;20037;-66
2022/10/13 00:48:01;;;;;;;7.03;2.67;;;23.60;69.70;;;;;;5060023;28;20053;-67
2022/10/13 00:50:36;;;;;;;7.65;2.30;;;23.60;70.30;;;;;;5052736;28;20051;-66
2022/10/13 00:53:04;;;;;;;5.68;3.10;;;23.70;67.60;;;;;;5050645;28;20025;-67
2022/10/13 00:55:36;;;;;;;16.60;3.22;;;23.60;68.70;;;;;;5050908;28;20037;-66
2022/10/13 00:58:09;;;;;;;6.63;3.08;;;23.70;70.10;;;;;;5053446;28;20045;-66
2022/10/13 01:00:37;;;;;;;5.22;2.60;;;23.50;68.00;;;;;;5057387;28;20025;-68
2022/10/13 01:03:04;;;;;;;5.15;2.40;;;23.40;67.00;;;;;;5052425;28;20032;-67
2022/10/13 01:05:32;;;;;;;5.38;2.97;;;23.10;68.80;;;;;;5046989;28;20047;-66
2022/10/13 01:08:00;;;;;;;7.43;3.00;;;23.20;68.90;;;;;;5053057;28;20057;-66
2022/10/13 01:10:50;;;;;;;5.80;2.78;;;23.10;70.20;;;;;;5050889;28;20052;-66
2022/10/13 01:13:35;;;;;;;10.00;2.75;;;22.80;70.10;;;;;;5034021;28;20051;-69
2022/10/13 01:16:21;;;;;;;8.30;3.03;;;22.50;71.40;;;;;;5045560;28;20028;-69
2022/10/13 01:19:19;;;;;;;4.50;2.78;;;22.30;72.20;;;;;;5050019;28;20025;-69
2022/10/13 01:22:23;;;;;;;5.57;3.20;;;22.20;74.10;;;;;;5047610;28;20133;-69
2022/10/13 01:25:11;;;;;;;6.05;3.17;;;21.90;75.60;;;;;;5049344;28;20037;-68
2022/10/13 01:28:00;;;;;;;10.32;3.22;;;21.80;74.50;;;;;;5051582;28;20029;-69
2022/10/13 01:30:29;;;;;;;8.13;3.05;;;21.80;75.20;;;;;;5050553;28;20013;-68
2022/10/13 01:33:08;;;;;;;8.02;2.72;;;21.80;75.70;;;;;;5048772;28;20115;-69
2022/10/13 01:36:07;;;;;;;8.40;2.53;;;21.80;75.80;;;;;;5047143;28;20021;-69
2022/10/13 01:38:37;;;;;;;10.05;2.67;;;21.60;76.30;;;;;;5042086;28;20072;-68
2022/10/13 01:41:28;;;;;;;7.90;2.35;;;21.70;76.40;;;;;;5049697;28;20711;-68
2022/10/13 01:44:11;;;;;;;6.40;1.88;;;21.70;75.70;;;;;;5050007;28;20052;-69
2022/10/13 01:46:40;;;;;;;4.07;1.48;;;21.80;77.40;;;;;;5043854;28;20036;-69
2022/10/13 01:49:15;;;;;;;5.55;1.60;;;22.20;75.20;;;;;;5067548;28;20021;-70
2022/10/13 01:51:43;;;;;;;7.15;1.45;;;22.50;76.40;;;;;;5050149;28;20758;-70
2022/10/13 01:54:11;;;;;;;6.03;1.58;;;22.70;73.50;;;;;;5050315;28;20059;-70
2022/10/13 01:56:38;;;;;;;5.05;1.48;;;23.20;73.40;;;;;;5042726;28;20493;-71
2022/10/13 01:59:11;;;;;;;5.93;1.63;;;23.70;71.90;;;;;;5053780;28;20074;-69
2022/10/13 02:01:54;;;;;;;5.82;1.63;;;23.80;66.70;;;;;;5057236;28;20028;-70
2022/10/13 02:04:40;;;;;;;4.53;2.15;;;23.60;69.10;;;;;;5057739;28;20079;-69
2022/10/13 02:07:24;;;;;;;3.88;1.55;;;23.50;68.60;;;;;;5059474;28;20689;-70
2022/10/13 02:10:04;;;;;;;6.75;2.17;;;23.60;69.40;;;;;;5050149;28;20120;-71
2022/10/13 02:12:38;;;;;;;8.50;2.10;;;23.70;67.80;;;;;;5063666;28;20027;-69
2022/10/13 02:15:10;;;;;;;9.07;2.03;;;23.60;67.90;;;;;;5047486;28;20067;-69
2022/10/13 02:17:39;;;;;;;7.68;2.88;;;23.40;68.00;;;;;;5049616;28;20507;-70
2022/10/13 02:20:08;;;;;;;7.90;2.17;;;23.30;68.50;;;;;;5054962;28;20021;-68
2022/10/13 02:22:41;;;;;;;3.95;1.67;;;23.10;69.90;;;;;;5054100;28;20398;-69
2022/10/13 02:25:09;;;;;;;2.53;1.40;;;23.00;68.60;;;;;;5066235;28;20060;-69
2022/10/13 02:27:36;;;;;;;6.55;2.20;;;22.60;70.70;;;;;;5047436;28;20424;-69
2022/10/13 02:30:05;;;;;;;6.35;1.88;;;22.30;72.80;;;;;;5042676;28;20035;-68
2022/10/13 02:32:32;;;;;;;5.47;1.85;;;22.10;71.40;;;;;;5056310;28;20025;-68
2022/10/13 02:34:59;;;;;;;7.43;2.28;;;22.00;74.10;;;;;;5048405;28;20029;-68
2022/10/13 02:37:26;;;;;;;9.45;2.75;;;21.80;74.70;;;;;;5051840;28;20852;-70
2022/10/13 02:39:54;;;;;;;7.97;2.20;;;21.80;74.30;;;;;;5056160;28;20513;-69
2022/10/13 02:42:21;;;;;;;11.98;2.50;;;21.70;76.00;;;;;;5047277;28;20037;-68
2022/10/13 02:44:48;;;;;;;5.82;2.08;;;21.60;76.20;;;;;;5062912;28;20032;-68
2022/10/13 02:47:16;;;;;;;7.15;1.95;;;21.60;76.20;;;;;;5054701;28;20146;-69
2022/10/13 02:49:43;;;;;;;4.13;2.35;;;21.60;77.80;;;;;;5064487;28;20559;-68
2022/10/13 02:52:10;;;;;;;6.20;1.98;;;21.70;78.00;;;;;;5056812;28;20486;-68
2022/10/13 02:54:38;;;;;;;5.13;1.75;;;21.70;78.50;;;;;;5052393;28;20028;-68
2022/10/13 02:57:05;;;;;;;7.78;1.80;;;21.70;77.80;;;;;;5046421;28;20032;-68
2022/10/13 02:59:32;;;;;;;5.05;1.80;;;21.50;78.60;;;;;;5059935;28;20469;-67
2022/10/13 03:01:59;;;;;;;6.03;1.27;;;21.40;81.20;;;;;;5058162;28;20036;-68
2022/10/13 03:04:27;;;;;;;5.10;1.48;;;21.60;80.80;;;;;;5055039;28;20036;-68
2022/10/13 03:06:54;;;;;;;10.65;1.35;;;21.70;79.70;;;;;;5051173;28;20028;-66
2022/10/13 03:09:21;;;;;;;5.07;1.55;;;21.90;79.60;;;;;;5060095;28;20032;-66
2022/10/13 03:11:48;;;;;;;6.95;2.00;;;22.00;79.70;;;;;;5050050;28;20031;-67
2022/10/13 03:14:16;;;;;;;7.53;1.67;;;22.10;78.00;;;;;;5048682;28;20024;-69
2022/10/13 03:16:43;;;;;;;12.93;2.10;;;22.10;78.00;;;;;;5049213;28;20434;-68
2022/10/13 03:19:11;;;;;;;6.40;1.55;;;22.10;79.00;;;;;;5046199;28;20021;-70
2022/10/13 03:21:39;;;;;;;5.80;1.40;;;22.10;76.20;;;;;;5048782;28;20121;-68
2022/10/13 03:24:06;;;;;;;6.25;1.70;;;22.20;76.20;;;;;;5049746;28;20118;-69
2022/10/13 03:26:34;;;;;;;9.25;1.70;;;22.40;76.10;;;;;;5044815;28;20103;-67
2022/10/13 03:29:02;;;;;;;3.70;1.52;;;22.50;75.20;;;;;;5047328;28;20060;-69
2022/10/13 03:31:30;;;;;;;6.80;1.23;;;22.60;75.10;;;;;;5045899;28;20108;-68
2022/10/13 03:33:57;;;;;;;4.43;1.60;;;22.70;73.60;;;;;;5042061;28;20704;-68
2022/10/13 03:36:24;;;;;;;6.43;1.10;;;22.70;73.10;;;;;;5074283;28;20053;-68
2022/10/13 03:38:51;;;;;;;6.60;1.67;;;22.50;74.70;;;;;;5042050;28;20421;-67
2022/10/13 03:41:19;;;;;;;5.75;1.33;;;22.40;76.60;;;;;;5050328;28;20016;-67
2022/10/13 03:43:47;;;;;;;3.55;1.20;;;22.50;75.70;;;;;;5051189;28;20017;-67
2022/10/13 03:46:16;;;;;;;8.98;1.77;;;22.70;74.60;;;;;;5049609;28;20036;-68
2022/10/13 03:48:44;;;;;;;6.60;1.48;;;22.70;74.30;;;;;;5049459;28;20025;-66
2022/10/13 03:51:15;;;;;;;5.60;1.42;;;22.70;75.40;;;;;;5048906;28;20524;-67
2022/10/13 03:53:43;;;;;;;6.55;1.20;;;22.80;75.80;;;;;;5046101;28;20021;-69
2022/10/13 03:56:16;;;;;;;5.80;1.23;;;22.80;75.10;;;;;;5049623;28;20025;-68
2022/10/13 03:58:43;;;;;;;5.85;1.35;;;22.90;74.80;;;;;;5050784;28;20029;-68
2022/10/13 04:01:13;;;;;;;2.55;1.23;;;22.90;74.90;;;;;;5051111;28;20021;-68
2022/10/13 04:03:41;;;;;;;4.38;1.20;;;22.60;75.80;;;;;;5053665;28;20052;-68
2022/10/13 04:06:10;;;;;;;5.72;1.40;;;22.60;76.10;;;;;;5044758;28;20036;-68
2022/10/13 04:08:37;;;;;;;7.03;1.60;;;22.50;77.60;;;;;;5052751;28;20025;-68
2022/10/13 04:11:13;;;;;;;5.55;1.00;;;22.50;78.00;;;;;;5048271;28;20024;-67
2022/10/13 04:13:41;;;;;;;3.10;1.17;;;22.70;76.60;;;;;;5047328;28;20025;-68
2022/10/13 04:16:17;;;;;;;5.32;1.48;;;22.80;75.80;;;;;;5044833;28;20108;-68
2022/10/13 04:18:45;;;;;;;3.60;1.58;;;23.10;75.70;;;;;;5050768;28;20017;-67
2022/10/13 04:21:15;;;;;;;6.13;1.40;;;23.10;75.00;;;;;;5051686;28;20044;-65
2022/10/13 04:23:42;;;;;;;4.75;1.58;;;23.20;74.20;;;;;;5051358;28;20017;-63
2022/10/13 04:26:17;;;;;;;4.15;1.13;;;23.30;74.50;;;;;;5049169;28;20029;-64
2022/10/13 04:28:46;;;;;;;3.88;1.10;;;23.10;74.30;;;;;;5049844;28;20029;-65
2022/10/13 04:31:13;;;;;;;4.60;1.52;;;22.80;76.40;;;;;;5050831;28;20048;-64
2022/10/13 04:33:40;;;;;;;7.57;1.85;;;22.70;76.60;;;;;;5052273;28;20021;-65
2022/10/13 04:36:10;;;;;;;9.65;1.40;;;22.70;77.60;;;;;;5047887;28;20548;-65
2022/10/13 04:38:38;;;;;;;4.53;1.58;;;22.80;76.80;;;;;;5049435;28;20298;-65
2022/10/13 04:41:07;;;;;;;6.93;1.75;;;22.70;77.50;;;;;;5051056;28;20508;-65
2022/10/13 04:43:34;;;;;;;8.40;1.25;;;22.70;77.10;;;;;;5051061;28;20078;-64
2022/10/13 04:46:13;;;;;;;4.32;1.10;;;22.70;77.40;;;;;;5048221;28;20037;-64
2022/10/13 04:48:41;;;;;;;6.90;1.10;;;22.80;77.20;;;;;;5049505;28;20082;-64
2022/10/13 04:51:14;;;;;;;4.45;1.08;;;22.70;77.50;;;;;;5047751;28;20394;-65
2022/10/13 04:53:42;;;;;;;5.40;1.10;;;22.70;76.20;;;;;;5051857;28;20028;-64
2022/10/13 04:56:11;;;;;;;5.63;1.40;;;22.90;77.60;;;;;;5045792;28;20021;-63
2022/10/13 04:58:40;;;;;;;6.15;1.60;;;23.10;75.30;;;;;;5050725;28;20466;-65
2022/10/13 05:01:11;;;;;;;3.83;1.65;;;23.00;76.90;;;;;;5053268;28;20454;-64
2022/10/13 05:03:38;;;;;;;10.60;1.52;;;23.10;76.50;;;;;;5040693;28;20394;-66
2022/10/13 05:06:06;;;;;;;3.17;1.52;;;23.00;75.80;;;;;;5060841;28;20111;-66
2022/10/13 05:08:34;;;;;;;6.15;1.42;;;22.60;76.40;;;;;;5054327;28;20096;-68
2022/10/13 05:11:02;;;;;;;6.97;1.30;;;22.50;78.30;;;;;;5051664;28;20143;-69
2022/10/13 05:13:29;;;;;;;3.15;0.82;;;22.40;79.00;;;;;;5064412;28;20475;-68
2022/10/13 05:15:57;;;;;;;6.75;1.27;;;22.40;78.10;;;;;;5046539;28;20110;-68
2022/10/13 05:18:25;;;;;;;4.75;1.77;;;22.40;78.70;;;;;;5050170;28;20028;-68
2022/10/13 05:20:52;;;;;;;7.03;1.10;;;22.30;78.70;;;;;;5050727;28;20024;-68
2022/10/13 05:23:19;;;;;;;7.20;1.63;;;22.30;78.80;;;;;;5054837;28;20381;-68
2022/10/13 05:25:46;;;;;;;4.75;2.25;;;22.20;79.40;;;;;;5061183;28;20034;-68
2022/10/13 05:28:14;;;;;;;7.15;1.25;;;22.20;79.80;;;;;;5054476;28;20021;-68
2022/10/13 05:30:41;;;;;;;7.00;1.50;;;22.10;80.50;;;;;;5053638;28;20521;-68
2022/10/13 05:33:08;;;;;;;5.65;2.03;;;22.00;81.00;;;;;;5068194;28;20016;-68
2022/10/13 05:35:35;;;;;;;15.27;2.15;;;22.10;81.00;;;;;;5047527;28;20037;-67
2022/10/13 05:38:03;;;;;;;6.30;1.30;;;21.90;81.00;;;;;;5047520;28;20525;-68
2022/10/13 05:40:30;;;;;;;6.00;1.33;;;21.60;82.50;;;;;;5057030;28;20033;-67
2022/10/13 05:42:57;;;;;;;4.15;1.05;;;21.70;83.20;;;;;;5055448;28;20667;-68
2022/10/13 05:45:27;;;;;;;11.18;1.60;;;21.60;83.60;;;;;;5049025;28;20044;-68
2022/10/13 05:47:54;;;;;;;10.75;1.35;;;21.60;83.60;;;;;;5055316;28;20017;-68
2022/10/13 05:50:23;;;;;;;4.75;1.42;;;21.30;84.30;;;;;;5055588;28;20049;-68
2022/10/13 05:52:51;;;;;;;10.70;1.27;;;21.30;85.50;;;;;;5051343;28;20489;-69
2022/10/13 05:55:19;;;;;;;6.40;1.05;;;21.30;84.50;;;;;;5048868;28;20035;-69
2022/10/13 05:57:51;;;;;;;6.07;1.48;;;21.10;85.40;;;;;;5051643;28;20708;-70
2022/10/13 06:00:19;;;;;;;5.85;1.52;;;21.10;85.70;;;;;;5079146;28;20437;-69
2022/10/13 06:03:01;;;;;;;7.97;1.17;;;21.00;86.40;;;;;;5046697;28;20033;-69
2022/10/13 06:05:31;;;;;;;9.07;1.38;;;20.90;86.30;;;;;;5049515;28;20500;-68
2022/10/13 06:07:59;;;;;;;6.38;1.30;;;20.90;86.70;;;;;;5057564;28;20464;-68
2022/10/13 06:10:27;;;;;;;4.93;1.20;;;20.90;86.40;;;;;;5065382;28;20375;-68
2022/10/13 06:12:54;;;;;;;6.20;1.50;;;20.80;87.10;;;;;;5058788;28;20103;-68
2022/10/13 06:15:21;;;;;;;8.38;1.55;;;20.80;87.00;;;;;;5046235;28;20035;-68
2022/10/13 06:17:48;;;;;;;9.52;1.45;;;20.70;87.70;;;;;;5043635;28;20504;-68
2022/10/13 06:20:16;;;;;;;7.72;0.95;;;20.60;87.30;;;;;;5054435;28;20549;-68
2022/10/13 06:22:43;;;;;;;7.13;0.98;;;20.60;88.00;;;;;;5065067;28;20374;-68
2022/10/13 06:25:10;;;;;;;8.40;2.13;;;20.60;88.00;;;;;;5047285;28;20041;-67
2022/10/13 06:27:38;;;;;;;6.57;1.20;;;20.60;88.30;;;;;;5042193;28;20025;-69
2022/10/13 06:30:05;;;;;;;8.45;1.98;;;20.60;88.00;;;;;;5060119;28;20021;-67
2022/10/13 06:32:33;;;;;;;5.45;1.48;;;20.50;88.60;;;;;;5064083;28;20021;-71
2022/10/13 06:35:00;;;;;;;5.82;1.10;;;20.50;88.80;;;;;;5066770;28;20020;-69
2022/10/13 06:37:27;;;;;;;8.27;1.30;;;20.40;88.60;;;;;;5054323;28;20012;-71
2022/10/13 06:39:54;;;;;;;4.15;1.02;;;20.30;88.90;;;;;;5055970;28;20082;-68
2022/10/13 06:42:22;;;;;;;6.72;1.52;;;20.20;89.00;;;;;;5052417;28;20048;-69
2022/10/13 06:44:49;;;;;;;10.02;1.77;;;20.20;89.40;;;;;;5051208;28;20114;-68
2022/10/13 06:47:16;;;;;;;6.55;1.63;;;20.10;89.50;;;;;;5054993;28;20020;-67
2022/10/13 06:49:44;;;;;;;5.28;1.25;;;20.10;90.00;;;;;;5064877;28;20183;-67
2022/10/13 06:52:11;;;;;;;4.43;0.90;;;20.00;90.30;;;;;;5047976;28;20131;-67
2022/10/13 06:54:38;;;;;;;4.97;1.10;;;20.00;90.40;;;;;;5048672;28;20035;-70
2022/10/13 06:57:06;;;;;;;7.10;1.20;;;19.90;90.70;;;;;;5065956;28;20028;-68
2022/10/13 06:59:34;;;;;;;6.45;1.02;;;19.80;90.80;;;;;;5049450;28;20028;-69
2022/10/13 07:02:01;;;;;;;8.20;2.10;;;19.80;91.20;;;;;;5050024;28;20075;-63
2022/10/13 07:04:28;;;;;;;6.10;1.25;;;19.70;91.00;;;;;;5046981;28;20043;-61
2022/10/13 07:06:56;;;;;;;5.97;1.17;;;19.70;91.30;;;;;;5047799;28;20031;-63
2022/10/13 07:09:23;;;;;;;6.95;1.50;;;19.70;91.50;;;;;;5049164;28;20074;-61
2022/10/13 07:11:50;;;;;;;10.70;1.85;;;19.60;91.50;;;;;;5044872;28;20028;-66
2022/10/13 07:14:17;;;;;;;10.02;1.20;;;19.60;91.50;;;;;;5045185;28;20051;-63
2022/10/13 07:16:47;;;;;;;4.05;1.20;;;19.50;91.30;;;;;;5049731;28;20474;-60
2022/10/13 07:19:14;;;;;;;5.60;1.00;;;19.50;91.30;;;;;;5046079;28;20025;-60
2022/10/13 07:21:41;;;;;;;7.93;1.65;;;19.40;91.70;;;;;;5046536;28;20045;-61
2022/10/13 07:24:11;;;;;;;6.03;1.10;;;19.40;91.80;;;;;;5049469;28;20055;-63
2022/10/13 07:26:38;;;;;;;7.28;1.50;;;19.30;91.70;;;;;;5046968;28;20036;-63
2022/10/13 07:29:05;;;;;;;14.60;2.63;;;19.30;91.90;;;;;;5049166;28;20473;-61
2022/10/13 07:31:33;;;;;;;8.05;1.10;;;19.30;92.10;;;;;;5046259;28;20501;-61
2022/10/13 07:34:00;;;;;;;8.98;1.60;;;19.30;92.20;;;;;;5049797;28;20029;-62
2022/10/13 07:36:28;;;;;;;7.72;1.17;;;19.20;92.30;;;;;;5050131;28;20091;-62
2022/10/13 07:38:55;;;;;;;9.77;1.63;;;19.20;92.60;;;;;;5048686;28;20483;-60
2022/10/13 07:41:22;;;;;;;12.93;1.52;;;19.10;92.80;;;;;;5048044;28;20718;-62
2022/10/13 07:43:54;;;;;;;10.52;1.50;;;19.10;92.90;;;;;;5045729;28;20033;-62
2022/10/13 07:46:21;;;;;;;5.53;1.52;;;19.00;93.30;;;;;;5042678;28;20150;-61
2022/10/13 07:48:48;;;;;;;5.60;1.52;;;19.00;93.50;;;;;;5046100;28;20033;-60
2022/10/13 07:51:16;;;;;;;3.83;1.92;;;18.90;93.70;;;;;;5047980;28;20045;-60
2022/10/13 07:53:45;;;;;;;9.40;1.88;;;18.90;93.90;;;;;;5053033;28;20493;-61
2022/10/13 07:56:14;;;;;;;13.98;2.28;;;18.80;94.10;;;;;;5055032;28;20478;-60
2022/10/13 07:58:44;;;;;;;7.50;1.40;;;18.80;94.40;;;;;;5037933;28;20087;-63
2022/10/13 08:01:12;;;;;;;10.25;2.33;;;18.70;94.50;;;;;;5042270;28;20457;-60
2022/10/13 08:03:41;;;;;;;6.00;1.10;;;18.70;94.80;;;;;;5078430;28;20060;-61
2022/10/13 08:06:08;;;;;;;4.28;1.15;;;18.70;94.90;;;;;;5052122;28;20068;-60
2022/10/13 08:08:36;;;;;;;5.68;1.52;;;18.60;95.20;;;;;;5044095;28;20029;-67
2022/10/13 08:11:06;;;;;;;10.48;2.10;;;18.60;95.50;;;;;;5048683;28;20111;-66
2022/10/13 08:13:34;;;;;;;7.97;1.42;;;18.50;95.80;;;;;;5052075;28;20021;-60
2022/10/13 08:16:02;;;;;;;10.27;2.55;;;18.50;96.20;;;;;;5038926;28;20032;-61
2022/10/13 08:18:30;;;;;;;5.60;1.25;;;18.40;96.40;;;;;;5045126;28;20110;-61
2022/10/13 08:21:00;;;;;;;8.38;1.45;;;18.40;96.70;;;;;;5046514;28;20017;-62
2022/10/13 08:23:28;;;;;;;7.15;1.95;;;18.40;97.30;;;;;;5046821;28;20412;-63
2022/10/13 08:25:55;;;;;;;10.45;1.60;;;18.30;97.60;;;;;;5050555;28;20155;-63
2022/10/13 08:28:27;;;;;;;13.35;1.70;;;18.30;97.90;;;;;;5043377;28;20100;-61
2022/10/13 08:30:58;;;;;;;11.80;1.65;;;18.20;98.60;;;;;;5038764;28;20075;-61
2022/10/13 08:33:26;;;;;;;10.75;2.00;;;18.20;98.90;;;;;;5038015;28;20486;-62
2022/10/13 08:35:54;;;;;;;8.80;2.50;;;18.20;99.20;;;;;;5042223;28;20033;-63
2022/10/13 08:38:21;;;;;;;9.63;1.40;;;18.20;99.50;;;;;;5041991;28;20159;-65
2022/10/13 08:40:50;;;;;;;9.90;1.55;;;18.10;99.60;;;;;;5041678;28;20036;-64
2022/10/13 08:43:20;;;;;;;13.45;1.90;;;18.00;99.90;;;;;;5046362;28;20512;-63
2022/10/13 08:45:51;;;;;;;14.02;1.70;;;18.10;99.90;;;;;;5046130;28;20050;-63
2022/10/13 08:48:30;;;;;;;8.77;1.50;;;18.00;99.90;;;;;;5049231;28;20025;-61
2022/10/13 08:51:02;;;;;;;9.75;1.63;;;18.00;99.90;;;;;;5054086;28;20049;-61
2022/10/13 08:53:39;;;;;;;8.23;1.38;;;18.00;99.90;;;;;;5062017;28;20095;-61
2022/10/13 08:56:36;;;;;;;12.40;2.50;;;18.00;99.90;;;;;;5055895;28;20028;-61
2022/10/13 08:59:05;;;;;;;7.30;1.25;;;18.00;99.90;;;;;;5051894;28;20036;-64
2022/10/13 09:01:53;;;;;;;7.85;2.35;;;18.00;99.90;;;;;;5052501;28;20028;-62
2022/10/13 09:04:34;;;;;;;12.00;3.00;;;18.00;99.90;;;;;;5049816;28;20397;-62
2022/10/13 09:07:22;;;;;;;12.55;2.30;;;17.90;99.90;;;;;;5048643;28;20048;-62
2022/10/13 09:09:54;;;;;;;7.20;1.60;;;17.90;99.90;;;;;;5046500;28;20021;-62
2022/10/13 09:12:25;;;;;;;15.82;1.25;;;17.90;99.90;;;;;;5046358;28;20025;-63
2022/10/13 09:15:04;;;;;;;15.00;1.98;;;17.90;99.90;;;;;;5047673;28;20028;-61
2022/10/13 09:17:33;;;;;;;11.00;2.22;;;17.90;99.90;;;;;;5051838;28;20111;-62
2022/10/13 09:20:06;;;;;;;15.00;1.73;;;17.90;99.90;;;;;;5044810;28;20452;-64
2022/10/13 09:22:36;;;;;;;15.32;3.25;;;17.90;99.90;;;;;;5051712;28;20029;-62
2022/10/13 09:25:18;;;;;;;10.32;2.25;;;17.90;99.90;;;;;;5047451;28;20429;-61
2022/10/13 09:27:53;;;;;;;9.02;1.83;;;17.90;99.90;;;;;;5053562;28;20035;-62
2022/10/13 09:30:33;;;;;;;10.80;1.80;;;17.90;99.90;;;;;;5052651;28;20512;-62
2022/10/13 09:33:12;;;;;;;7.88;1.88;;;17.90;99.90;;;;;;5050524;28;20104;-62
2022/10/13 09:35:41;;;;;;;13.63;1.83;;;17.90;99.90;;;;;;5044407;28;20078;-62
2022/10/13 09:38:18;;;;;;;19.70;2.15;;;17.90;99.90;;;;;;5057086;28;20029;-62
2022/10/13 09:41:08;;;;;;;11.80;2.30;;;17.80;99.90;;;;;;5046235;28;20087;-62
2022/10/13 09:43:46;;;;;;;8.25;1.85;;;17.90;99.90;;;;;;5046263;28;20029;-62
2022/10/13 09:46:42;;;;;;;9.98;1.75;;;17.80;99.90;;;;;;5047218;28;20513;-61
2022/10/13 09:49:25;;;;;;;8.57;1.92;;;17.80;99.90;;;;;;5056830;28;20051;-62
2022/10/13 09:51:58;;;;;;;8.20;1.58;;;17.80;99.90;;;;;;5058406;28;20140;-63
2022/10/13 09:54:40;;;;;;;11.13;2.65;;;17.80;99.90;;;;;;5045619;28;20625;-61
2022/10/13 09:57:25;;;;;;;8.27;1.65;;;17.80;99.90;;;;;;5050743;28;20541;-62
2022/10/13 09:59:53;;;;;;;;;;;17.70;99.90;;;;;;5047374;28;20024;-62
2022/10/13 10:02:31;;;;;;;12.68;1.88;;;17.70;99.90;;;;;;5050676;28;19913;-61
2022/10/13 10:05:13;;;;;;;15.52;1.92;;;17.70;99.90;;;;;;5052523;28;20643;-62
2022/10/13 10:07:40;;;;;;;12.27;2.30;;;17.70;99.90;;;;;;5039983;28;20024;-61
2022/10/13 10:10:26;;;;;;;11.70;1.73;;;17.70;99.90;;;;;;5050430;28;20397;-61
2022/10/13 10:12:54;;;;;;;7.70;1.95;;;17.70;99.90;;;;;;5045841;28;20029;-62
2022/10/13 10:15:35;;;;;;;9.35;2.33;;;17.60;99.90;;;;;;5052347;28;20024;-62
2022/10/13 10:18:17;;;;;;;14.45;2.03;;;17.60;99.90;;;;;;5056117;28;20025;-62
2022/10/13 10:20:58;;;;;;;10.75;1.77;;;17.60;99.90;;;;;;5063181;28;20020;-62
2022/10/13 10:23:28;;;;;;;6.47;1.60;;;17.60;99.90;;;;;;5041782;28;20108;-61
2022/10/13 10:26:17;;;;;;;12.05;3.05;;;17.60;99.90;;;;;;5045812;28;20106;-61
2022/10/13 10:29:16;;;;;;;11.80;1.92;;;17.60;99.90;;;;;;5052888;28;20035;-62
2022/10/13 10:32:05;;;;;;;6.82;2.15;;;17.60;99.90;;;;;;5049579;28;20021;-62
2022/10/13 10:34:57;;;;;;;13.88;2.78;;;17.60;99.90;;;;;;5046511;28;20036;-64
2022/10/13 10:37:39;;;;;;;7.40;1.58;;;17.60;99.90;;;;;;5044836;28;20422;-60
2022/10/13 10:40:12;;;;;;;14.07;3.47;;;17.50;99.90;;;;;;5046276;28;20024;-68
2022/10/13 10:42:46;;;;;;;8.88;1.75;;;17.50;99.90;;;;;;5050125;28;20033;-62
2022/10/13 10:45:19;;;;;;;11.38;2.20;;;17.50;99.90;;;;;;5040095;28;20402;-62
2022/10/13 10:47:50;;;;;;;5.80;1.60;;;17.50;99.90;;;;;;5047064;28;20468;-61
2022/10/13 10:50:18;;;;;;;9.55;2.25;;;17.50;99.90;;;;;;5042126;28;20033;-61
2022/10/13 10:53:02;;;;;;;12.20;2.13;;;17.40;99.90;;;;;;5035535;28;20057;-61
2022/10/13 10:55:43;;;;;;;10.25;2.45;;;17.50;99.90;;;;;;5043202;28;20029;-61
2022/10/13 10:58:13;;;;;;;10.13;2.30;;;17.50;99.90;;;;;;5042355;28;20036;-61
2022/10/13 11:00:55;;;;;;;11.10;2.22;;;17.40;99.90;;;;;;5040460;28;20033;-61
2022/10/13 11:03:44;;;;;;;8.90;2.38;;;17.40;99.90;;;;;;5043612;28;20024;-61
2022/10/13 11:06:17;;;;;;;7.25;2.00;;;17.30;99.90;;;;;;5042530;28;20029;-61
2022/10/13 11:08:47;;;;;;;6.90;2.33;;;17.20;99.90;;;;;;5040695;28;20060;-61
2022/10/13 11:11:24;;;;;;;18.30;2.72;;;17.20;99.90;;;;;;5042333;28;20024;-60
2022/10/13 11:13:54;;;;;;;6.97;2.10;;;17.10;99.90;;;;;;5045295;28;20029;-60
2022/10/13 11:16:39;;;;;;;19.20;3.05;;;17.10;99.90;;;;;;5048340;28;20019;-61
2022/10/13 11:19:24;;;;;;;6.32;2.00;;;17.00;99.90;;;;;;5045465;28;20056;-60
2022/10/13 11:21:58;;;;;;;18.50;3.17;;;17.00;99.90;;;;;;5042469;28;20025;-60
2022/10/13 11:24:35;;;;;;;10.43;2.83;;;16.90;99.90;;;;;;5047132;28;20029;-61
2022/10/13 11:27:10;;;;;;;15.25;3.38;;;16.90;99.90;;;;;;5028956;28;20018;-60
2022/10/13 11:29:47;;;;;;;7.85;2.05;;;16.80;99.90;;;;;;5042919;28;20037;-68
2022/10/13 11:32:29;;;;;;;12.95;2.60;;;16.80;99.90;;;;;;5049569;28;20025;-61
2022/10/13 11:35:05;;;;;;;7.13;2.45;;;16.70;99.90;;;;;;5049048;28;20028;-61
2022/10/13 11:37:44;;;;;;;10.50;2.35;;;16.60;99.90;;;;;;5049742;28;20032;-61
2022/10/13 11:40:30;;;;;;;7.28;1.98;;;16.60;99.90;;;;;;5049931;28;20106;-60
2022/10/13 11:43:15;;;;;;;10.60;2.72;;;16.50;99.90;;;;;;5047193;28;20486;-61
2022/10/13 11:45:51;;;;;;;9.55;2.90;;;16.50;99.90;;;;;;5048251;28;20123;-61
2022/10/13 11:48:52;;;;;;;6.57;2.58;;;16.30;99.90;;;;;;5046819;28;20021;-61
2022/10/13 11:51:41;;;;;;;8.70;2.25;;;16.20;99.90;;;;;;5049000;28;20049;-61
2022/10/13 11:54:29;;;;;;;12.85;3.15;;;16.10;99.90;;;;;;5049502;28;20029;-63
2022/10/13 11:56:57;;;;;;;10.23;2.42;;;16.10;99.90;;;;;;5039841;28;20048;-61
2022/10/13 11:59:36;;;;;;;14.20;2.80;;;16.00;99.90;;;;;;5053288;28;20025;-61
2022/10/13 12:02:09;;;;;;;13.50;2.83;;;16.00;99.90;;;;;;5064658;28;20063;-60
2022/10/13 12:04:37;;;;;;;8.50;2.60;;;16.00;99.90;;;;;;5048197;28;20037;-61
2022/10/13 12:07:07;;;;;;;8.77;2.72;;;15.90;99.90;;;;;;5049476;28;20505;-61
2022/10/13 12:09:56;;;;;;;7.90;2.28;;;16.00;99.90;;;;;;5044529;28;20029;-60
2022/10/13 12:12:24;;;;;;;11.25;2.20;;;16.00;99.90;;;;;;5049172;28;20087;-60
2022/10/13 12:14:54;;;;;;;11.98;2.60;;;16.00;99.90;;;;;;5049920;28;20029;-60
2022/10/13 12:17:30;;;;;;;6.85;2.03;;;15.90;99.90;;;;;;5065238;28;20022;-61
2022/10/13 12:20:00;;;;;;;10.93;2.95;;;15.90;99.90;;;;;;5052764;28;20028;-61
2022/10/13 12:22:29;;;;;;;10.45;2.15;;;15.80;99.90;;;;;;5050999;28;20028;-61
2022/10/13 12:25:03;;;;;;;12.88;2.90;;;15.80;99.90;;;;;;5048679;28;20091;-61
2022/10/13 12:27:33;;;;;;;;;;;15.70;99.90;;;;;;5049495;28;20111;-61
2022/10/13 12:30:04;;;;;;;9.45;2.15;;;15.70;99.90;;;;;;5049972;28;20350;-61
2022/10/13 12:32:34;;;;;;;12.10;2.40;;;15.60;99.90;;;;;;5050942;28;20174;-61
2022/10/13 12:35:20;;;;;;;5.13;2.08;;;15.60;99.90;;;;;;5050212;28;20063;-61
2022/10/13 12:37:49;;;;;;;6.95;1.58;;;15.50;99.90;;;;;;5052173;28;20033;-61
2022/10/13 12:40:18;;;;;;;13.60;2.85;;;15.50;99.90;;;;;;5051418;28;20028;-61
2022/10/13 12:42:46;;;;;;;9.73;2.83;;;15.50;99.90;;;;;;5048667;28;20025;-61
2022/10/13 12:45:22;;;;;;;11.13;2.25;;;15.50;99.90;;;;;;5056903;28;20035;-61
2022/10/13 12:47:52;;;;;;;12.50;3.00;;;15.50;99.90;;;;;;5046652;28;20524;-61
2022/10/13 12:50:28;;;;;;;16.83;2.60;;;15.60;99.90;;;;;;5047829;28;20025;-61
2022/10/13 12:53:05;;;;;;;5.50;2.30;;;15.60;99.90;;;;;;5049746;28;20470;-60
2022/10/13 12:55:33;;;;;;;10.05;2.95;;;15.60;99.90;;;;;;5045740;28;20508;-61
2022/10/13 12:58:01;;;;;;;10.90;2.65;;;15.60;99.90;;;;;;5050462;28;20389;-61
2022/10/13 13:00:30;;;;;;;10.27;2.50;;;15.60;99.90;;;;;;5049589;28;20587;-60
2022/10/13 13:03:03;;;;;;;12.32;3.45;;;15.60;99.90;;;;;;5049917;28;20021;-60
2022/10/13 13:05:44;;;;;;;11.75;2.70;;;15.60;99.90;;;;;;5047612;28;20087;-61
2022/10/13 13:08:31;;;;;;;17.75;2.83;;;15.50;99.90;;;;;;5048950;28;20028;-61
2022/10/13 13:11:05;;;;;;;17.38;3.42;;;15.50;99.90;;;;;;5049683;28;20029;-61